sensor_id;sensor_type;location;lat;lon;timestamp;P1;durP1;ratioP1;P2;durP2;ratioP2
32455;SDS011;18912;43.270;27.942;2022-11-20T00:00:47;22.83;;;4.93;;
32455;SDS011;18912;43.270;27.942;2022-11-20T00:03:12;21.60;;;5.07;;
32455;SDS011;18912;43.270;27.942;2022-11-20T00:05:38;34.73;;;5.47;;
32455;SDS011;18912;43.270;27.942;2022-11-20T00:08:03;20.23;;;5.17;;
32455;SDS011;18912;43.270;27.942;2022-11-20T00:10:29;31.53;;;6.63;;
32455;SDS011;18912;43.270;27.942;2022-11-20T00:12:55;28.23;;;4.87;;
32455;SDS011;18912;43.270;27.942;2022-11-20T00:15:22;35.70;;;5.35;;
32455;SDS011;18912;43.270;27.942;2022-11-20T00:17:47;24.93;;;4.73;;
32455;SDS011;18912;43.270;27.942;2022-11-20T00:20:13;28.57;;;5.17;;
32455;SDS011;18912;43.270;27.942;2022-11-20T00:22:39;33.00;;;5.10;;
32455;SDS011;18912;43.270;27.942;2022-11-20T00:25:04;31.47;;;4.40;;
32455;SDS011;18912;43.270;27.942;2022-11-20T00:27:30;30.10;;;4.83;;
32455;SDS011;18912;43.270;27.942;2022-11-20T00:29:55;18.37;;;4.53;;
32455;SDS011;18912;43.270;27.942;2022-11-20T00:32:21;16.27;;;4.10;;
32455;SDS011;18912;43.270;27.942;2022-11-20T00:34:46;16.00;;;4.40;;
32455;SDS011;18912;43.270;27.942;2022-11-20T00:37:12;17.50;;;4.40;;
32455;SDS011;18912;43.270;27.942;2022-11-20T00:39:37;23.70;;;4.10;;
32455;SDS011;18912;43.270;27.942;2022-11-20T00:42:03;23.50;;;5.20;;
32455;SDS011;18912;43.270;27.942;2022-11-20T00:44:28;23.77;;;5.43;;
32455;SDS011;18912;43.270;27.942;2022-11-20T00:46:54;24.50;;;6.33;;
32455;SDS011;18912;43.270;27.942;2022-11-20T00:49:19;30.97;;;5.07;;
32455;SDS011;18912;43.270;27.942;2022-11-20T00:51:44;22.70;;;5.67;;
32455;SDS011;18912;43.270;27.942;2022-11-20T00:54:10;24.93;;;5.53;;
32455;SDS011;18912;43.270;27.942;2022-11-20T00:56:35;36.90;;;5.80;;
32455;SDS011;18912;43.270;27.942;2022-11-20T00:59:01;19.77;;;4.50;;
32455;SDS011;18912;43.270;27.942;2022-11-20T01:01:27;23.52;;;4.63;;
32455;SDS011;18912;43.270;27.942;2022-11-20T01:06:22;24.45;;;4.20;;
32455;SDS011;18912;43.270;27.942;2022-11-20T01:08:54;22.40;;;4.68;;
32455;SDS011;18912;43.270;27.942;2022-11-20T01:11:32;23.13;;;4.85;;
32455;SDS011;18912;43.270;27.942;2022-11-20T01:13:59;25.90;;;4.80;;
32455;SDS011;18912;43.270;27.942;2022-11-20T01:16:37;20.65;;;4.63;;
32455;SDS011;18912;43.270;27.942;2022-11-20T01:19:05;25.35;;;4.15;;
32455;SDS011;18912;43.270;27.942;2022-11-20T01:21:32;21.73;;;4.80;;
32455;SDS011;18912;43.270;27.942;2022-11-20T01:24:00;28.63;;;5.35;;
32455;SDS011;18912;43.270;27.942;2022-11-20T01:26:27;22.38;;;5.40;;
32455;SDS011;18912;43.270;27.942;2022-11-20T01:28:56;20.02;;;4.93;;
32455;SDS011;18912;43.270;27.942;2022-11-20T01:31:23;22.63;;;5.15;;
32455;SDS011;18912;43.270;27.942;2022-11-20T01:33:55;24.23;;;4.75;;
32455;SDS011;18912;43.270;27.942;2022-11-20T01:36:23;16.55;;;4.07;;
32455;SDS011;18912;43.270;27.942;2022-11-20T01:38:53;20.85;;;5.47;;
32455;SDS011;18912;43.270;27.942;2022-11-20T01:41:20;17.88;;;4.55;;
32455;SDS011;18912;43.270;27.942;2022-11-20T01:44:04;18.00;;;4.45;;
32455;SDS011;18912;43.270;27.942;2022-11-20T01:46:31;25.15;;;4.80;;
32455;SDS011;18912;43.270;27.942;2022-11-20T01:49:01;19.20;;;4.75;;
32455;SDS011;18912;43.270;27.942;2022-11-20T01:51:39;27.52;;;5.38;;
32455;SDS011;18912;43.270;27.942;2022-11-20T01:54:11;24.58;;;4.65;;
32455;SDS011;18912;43.270;27.942;2022-11-20T01:56:40;25.52;;;4.55;;
32455;SDS011;18912;43.270;27.942;2022-11-20T01:59:09;20.98;;;4.40;;
32455;SDS011;18912;43.270;27.942;2022-11-20T02:01:38;25.25;;;4.50;;
32455;SDS011;18912;43.270;27.942;2022-11-20T02:04:04;22.33;;;4.47;;
32455;SDS011;18912;43.270;27.942;2022-11-20T02:06:36;25.60;;;4.40;;
32455;SDS011;18912;43.270;27.942;2022-11-20T02:09:07;29.75;;;5.38;;
32455;SDS011;18912;43.270;27.942;2022-11-20T02:11:33;21.00;;;4.23;;
32455;SDS011;18912;43.270;27.942;2022-11-20T02:13:58;15.90;;;4.00;;
32455;SDS011;18912;43.270;27.942;2022-11-20T02:18:50;32.57;;;5.40;;
32455;SDS011;18912;43.270;27.942;2022-11-20T02:26:27;23.30;;;4.50;;
32455;SDS011;18912;43.270;27.942;2022-11-20T02:28:55;26.38;;;4.07;;
32455;SDS011;18912;43.270;27.942;2022-11-20T02:31:23;26.92;;;6.18;;
32455;SDS011;18912;43.270;27.942;2022-11-20T02:33:54;22.67;;;4.97;;
32455;SDS011;18912;43.270;27.942;2022-11-20T02:36:23;23.80;;;5.07;;
32455;SDS011;18912;43.270;27.942;2022-11-20T02:38:51;26.55;;;4.95;;
32455;SDS011;18912;43.270;27.942;2022-11-20T02:41:17;18.87;;;4.97;;
32455;SDS011;18912;43.270;27.942;2022-11-20T02:43:42;17.93;;;4.33;;
32455;SDS011;18912;43.270;27.942;2022-11-20T02:46:08;23.87;;;3.90;;
32455;SDS011;18912;43.270;27.942;2022-11-20T02:48:33;22.90;;;4.10;;
32455;SDS011;18912;43.270;27.942;2022-11-20T02:50:59;24.63;;;5.07;;
32455;SDS011;18912;43.270;27.942;2022-11-20T02:53:25;39.85;;;11.32;;
32455;SDS011;18912;43.270;27.942;2022-11-20T02:55:50;29.37;;;6.20;;
32455;SDS011;18912;43.270;27.942;2022-11-20T02:58:16;30.27;;;6.37;;
32455;SDS011;18912;43.270;27.942;2022-11-20T03:00:41;30.27;;;8.50;;
32455;SDS011;18912;43.270;27.942;2022-11-20T03:03:07;31.27;;;8.80;;
32455;SDS011;18912;43.270;27.942;2022-11-20T03:05:32;31.17;;;11.00;;
32455;SDS011;18912;43.270;27.942;2022-11-20T03:07:58;53.90;;;11.77;;
32455;SDS011;18912;43.270;27.942;2022-11-20T03:10:24;40.80;;;15.23;;
32455;SDS011;18912;43.270;27.942;2022-11-20T03:12:53;32.57;;;11.10;;
32455;SDS011;18912;43.270;27.942;2022-11-20T03:15:20;20.85;;;6.90;;
32455;SDS011;18912;43.270;27.942;2022-11-20T03:17:46;19.40;;;5.13;;
32455;SDS011;18912;43.270;27.942;2022-11-20T03:20:11;23.63;;;8.07;;
32455;SDS011;18912;43.270;27.942;2022-11-20T03:22:37;27.20;;;7.73;;
32455;SDS011;18912;43.270;27.942;2022-11-20T03:25:03;24.87;;;5.47;;
32455;SDS011;18912;43.270;27.942;2022-11-20T03:27:31;31.02;;;4.78;;
32455;SDS011;18912;43.270;27.942;2022-11-20T03:29:58;24.25;;;5.30;;
32455;SDS011;18912;43.270;27.942;2022-11-20T03:32:23;20.03;;;4.40;;
32455;SDS011;18912;43.270;27.942;2022-11-20T03:34:49;20.77;;;4.67;;
32455;SDS011;18912;43.270;27.942;2022-11-20T03:37:14;20.93;;;4.63;;
32455;SDS011;18912;43.270;27.942;2022-11-20T03:39:40;19.17;;;4.50;;
32455;SDS011;18912;43.270;27.942;2022-11-20T03:42:05;27.40;;;4.80;;
32455;SDS011;18912;43.270;27.942;2022-11-20T03:44:51;32.08;;;5.93;;
32455;SDS011;18912;43.270;27.942;2022-11-20T03:47:16;27.80;;;6.03;;
32455;SDS011;18912;43.270;27.942;2022-11-20T03:49:41;24.93;;;6.53;;
32455;SDS011;18912;43.270;27.942;2022-11-20T03:52:07;13.20;;;4.40;;
32455;SDS011;18912;43.270;27.942;2022-11-20T03:54:32;80.70;;;30.87;;
32455;SDS011;18912;43.270;27.942;2022-11-20T03:56:58;33.50;;;7.93;;
32455;SDS011;18912;43.270;27.942;2022-11-20T03:59:23;24.23;;;9.00;;
32455;SDS011;18912;43.270;27.942;2022-11-20T04:01:49;34.63;;;5.57;;
32455;SDS011;18912;43.270;27.942;2022-11-20T04:04:14;21.73;;;4.47;;
32455;SDS011;18912;43.270;27.942;2022-11-20T04:06:39;17.90;;;3.67;;
32455;SDS011;18912;43.270;27.942;2022-11-20T04:09:05;26.10;;;4.13;;
32455;SDS011;18912;43.270;27.942;2022-11-20T04:11:32;19.83;;;4.83;;
32455;SDS011;18912;43.270;27.942;2022-11-20T04:14:00;16.63;;;4.13;;
32455;SDS011;18912;43.270;27.942;2022-11-20T04:16:32;25.15;;;4.60;;
32455;SDS011;18912;43.270;27.942;2022-11-20T04:19:00;17.48;;;3.53;;
32455;SDS011;18912;43.270;27.942;2022-11-20T04:21:26;22.20;;;3.67;;
32455;SDS011;18912;43.270;27.942;2022-11-20T04:23:52;17.75;;;4.22;;
32455;SDS011;18912;43.270;27.942;2022-11-20T04:26:18;15.48;;;3.67;;
32455;SDS011;18912;43.270;27.942;2022-11-20T04:28:45;21.40;;;4.68;;
32455;SDS011;18912;43.270;27.942;2022-11-20T04:31:15;26.97;;;4.20;;
32455;SDS011;18912;43.270;27.942;2022-11-20T04:33:42;20.63;;;4.47;;
32455;SDS011;18912;43.270;27.942;2022-11-20T04:36:15;24.63;;;4.20;;
32455;SDS011;18912;43.270;27.942;2022-11-20T04:38:52;28.08;;;4.72;;
32455;SDS011;18912;43.270;27.942;2022-11-20T04:41:20;21.88;;;4.60;;
32455;SDS011;18912;43.270;27.942;2022-11-20T04:43:50;23.40;;;3.45;;
32455;SDS011;18912;43.270;27.942;2022-11-20T04:46:17;17.25;;;3.67;;
32455;SDS011;18912;43.270;27.942;2022-11-20T04:48:44;16.52;;;3.95;;
32455;SDS011;18912;43.270;27.942;2022-11-20T04:51:09;21.93;;;3.90;;
32455;SDS011;18912;43.270;27.942;2022-11-20T04:53:35;21.20;;;4.30;;
32455;SDS011;18912;43.270;27.942;2022-11-20T04:56:04;32.43;;;6.97;;
32455;SDS011;18912;43.270;27.942;2022-11-20T04:58:31;22.75;;;4.68;;
32455;SDS011;18912;43.270;27.942;2022-11-20T05:01:01;21.05;;;4.03;;
32455;SDS011;18912;43.270;27.942;2022-11-20T05:03:27;19.20;;;4.45;;
32455;SDS011;18912;43.270;27.942;2022-11-20T05:05:52;24.97;;;4.60;;
32455;SDS011;18912;43.270;27.942;2022-11-20T05:08:18;15.90;;;3.67;;
32455;SDS011;18912;43.270;27.942;2022-11-20T05:10:43;19.87;;;3.77;;
32455;SDS011;18912;43.270;27.942;2022-11-20T05:13:09;19.37;;;4.47;;
32455;SDS011;18912;43.270;27.942;2022-11-20T05:15:34;35.03;;;4.93;;
32455;SDS011;18912;43.270;27.942;2022-11-20T05:17:59;26.83;;;3.60;;
32455;SDS011;18912;43.270;27.942;2022-11-20T05:20:25;20.73;;;4.70;;
32455;SDS011;18912;43.270;27.942;2022-11-20T05:22:50;19.70;;;4.37;;
32455;SDS011;18912;43.270;27.942;2022-11-20T05:25:16;22.73;;;3.80;;
32455;SDS011;18912;43.270;27.942;2022-11-20T05:27:41;19.53;;;3.40;;
32455;SDS011;18912;43.270;27.942;2022-11-20T05:30:07;17.20;;;4.03;;
32455;SDS011;18912;43.270;27.942;2022-11-20T05:32:33;17.48;;;3.20;;
32455;SDS011;18912;43.270;27.942;2022-11-20T05:34:59;16.37;;;4.47;;
32455;SDS011;18912;43.270;27.942;2022-11-20T05:37:25;12.80;;;3.13;;
32455;SDS011;18912;43.270;27.942;2022-11-20T05:39:50;28.47;;;5.40;;
32455;SDS011;18912;43.270;27.942;2022-11-20T05:42:15;17.87;;;3.37;;
32455;SDS011;18912;43.270;27.942;2022-11-20T05:44:59;22.52;;;3.58;;
32455;SDS011;18912;43.270;27.942;2022-11-20T05:47:27;20.50;;;4.35;;
32455;SDS011;18912;43.270;27.942;2022-11-20T05:49:56;28.63;;;4.03;;
32455;SDS011;18912;43.270;27.942;2022-11-20T05:52:22;20.27;;;3.57;;
32455;SDS011;18912;43.270;27.942;2022-11-20T05:54:47;24.13;;;5.07;;
32455;SDS011;18912;43.270;27.942;2022-11-20T05:57:13;26.43;;;4.00;;
32455;SDS011;18912;43.270;27.942;2022-11-20T05:59:38;29.63;;;4.03;;
32455;SDS011;18912;43.270;27.942;2022-11-20T06:02:03;19.07;;;3.60;;
32455;SDS011;18912;43.270;27.942;2022-11-20T06:04:29;23.00;;;3.60;;
32455;SDS011;18912;43.270;27.942;2022-11-20T06:06:54;24.83;;;4.07;;
32455;SDS011;18912;43.270;27.942;2022-11-20T06:09:20;26.20;;;4.10;;
32455;SDS011;18912;43.270;27.942;2022-11-20T06:11:45;23.20;;;3.03;;
32455;SDS011;18912;43.270;27.942;2022-11-20T06:14:11;19.17;;;3.00;;
32455;SDS011;18912;43.270;27.942;2022-11-20T06:16:36;18.87;;;4.30;;
32455;SDS011;18912;43.270;27.942;2022-11-20T06:19:02;19.83;;;3.97;;
32455;SDS011;18912;43.270;27.942;2022-11-20T06:21:27;28.43;;;3.70;;
32455;SDS011;18912;43.270;27.942;2022-11-20T06:23:53;20.63;;;4.20;;
32455;SDS011;18912;43.270;27.942;2022-11-20T06:26:20;21.10;;;3.78;;
32455;SDS011;18912;43.270;27.942;2022-11-20T06:28:47;31.52;;;4.32;;
32455;SDS011;18912;43.270;27.942;2022-11-20T06:31:13;25.40;;;3.97;;
32455;SDS011;18912;43.270;27.942;2022-11-20T06:33:41;23.98;;;4.15;;
32455;SDS011;18912;43.270;27.942;2022-11-20T06:36:06;24.45;;;4.47;;
32455;SDS011;18912;43.270;27.942;2022-11-20T06:38:32;38.57;;;12.90;;
32455;SDS011;18912;43.270;27.942;2022-11-20T06:40:58;38.13;;;7.93;;
32455;SDS011;18912;43.270;27.942;2022-11-20T06:43:23;23.63;;;4.07;;
32455;SDS011;18912;43.270;27.942;2022-11-20T06:45:53;24.90;;;4.13;;
32455;SDS011;18912;43.270;27.942;2022-11-20T06:48:20;21.05;;;4.35;;
32455;SDS011;18912;43.270;27.942;2022-11-20T06:50:45;21.40;;;3.93;;
32455;SDS011;18912;43.270;27.942;2022-11-20T06:53:11;21.97;;;3.40;;
32455;SDS011;18912;43.270;27.942;2022-11-20T06:55:36;23.90;;;3.80;;
32455;SDS011;18912;43.270;27.942;2022-11-20T06:58:06;26.45;;;3.90;;
32455;SDS011;18912;43.270;27.942;2022-11-20T07:00:32;15.37;;;2.90;;
32455;SDS011;18912;43.270;27.942;2022-11-20T07:02:57;27.47;;;4.07;;
32455;SDS011;18912;43.270;27.942;2022-11-20T07:05:23;25.47;;;4.40;;
32455;SDS011;18912;43.270;27.942;2022-11-20T07:07:48;31.90;;;5.07;;
32455;SDS011;18912;43.270;27.942;2022-11-20T07:10:14;23.17;;;4.80;;
32455;SDS011;18912;43.270;27.942;2022-11-20T07:12:39;38.80;;;5.03;;
32455;SDS011;18912;43.270;27.942;2022-11-20T07:15:05;26.33;;;3.83;;
32455;SDS011;18912;43.270;27.942;2022-11-20T07:17:31;22.25;;;3.03;;
32455;SDS011;18912;43.270;27.942;2022-11-20T07:19:56;29.60;;;4.60;;
32455;SDS011;18912;43.270;27.942;2022-11-20T07:22:21;27.43;;;5.07;;
32455;SDS011;18912;43.270;27.942;2022-11-20T07:24:47;37.83;;;5.63;;
32455;SDS011;18912;43.270;27.942;2022-11-20T07:27:13;27.25;;;3.92;;
32455;SDS011;18912;43.270;27.942;2022-11-20T07:29:38;20.67;;;3.63;;
32455;SDS011;18912;43.270;27.942;2022-11-20T07:32:04;25.50;;;5.00;;
32455;SDS011;18912;43.270;27.942;2022-11-20T07:34:30;23.53;;;5.23;;
32455;SDS011;18912;43.270;27.942;2022-11-20T07:36:55;26.10;;;4.20;;
32455;SDS011;18912;43.270;27.942;2022-11-20T07:39:21;25.63;;;4.37;;
32455;SDS011;18912;43.270;27.942;2022-11-20T07:41:46;29.07;;;4.37;;
32455;SDS011;18912;43.270;27.942;2022-11-20T07:44:12;44.40;;;5.47;;
32455;SDS011;18912;43.270;27.942;2022-11-20T07:46:37;28.37;;;4.20;;
32455;SDS011;18912;43.270;27.942;2022-11-20T07:49:03;20.10;;;4.23;;
32455;SDS011;18912;43.270;27.942;2022-11-20T07:51:28;22.20;;;4.07;;
32455;SDS011;18912;43.270;27.942;2022-11-20T07:53:54;21.80;;;5.13;;
32455;SDS011;18912;43.270;27.942;2022-11-20T07:56:19;22.90;;;3.70;;
32455;SDS011;18912;43.270;27.942;2022-11-20T07:58:45;25.97;;;4.13;;
32455;SDS011;18912;43.270;27.942;2022-11-20T08:01:10;27.80;;;4.03;;
32455;SDS011;18912;43.270;27.942;2022-11-20T08:03:36;27.20;;;4.40;;
32455;SDS011;18912;43.270;27.942;2022-11-20T08:06:04;28.90;;;4.53;;
32455;SDS011;18912;43.270;27.942;2022-11-20T08:08:30;28.73;;;4.05;;
32455;SDS011;18912;43.270;27.942;2022-11-20T08:10:58;19.50;;;4.20;;
32455;SDS011;18912;43.270;27.942;2022-11-20T08:13:44;31.33;;;4.32;;
32455;SDS011;18912;43.270;27.942;2022-11-20T08:16:28;19.92;;;4.25;;
32455;SDS011;18912;43.270;27.942;2022-11-20T08:18:54;26.03;;;4.83;;
32455;SDS011;18912;43.270;27.942;2022-11-20T08:21:19;25.70;;;3.73;;
32455;SDS011;18912;43.270;27.942;2022-11-20T08:23:45;19.13;;;3.77;;
32455;SDS011;18912;43.270;27.942;2022-11-20T08:26:10;25.57;;;4.40;;
32455;SDS011;18912;43.270;27.942;2022-11-20T08:28:36;31.30;;;5.23;;
32455;SDS011;18912;43.270;27.942;2022-11-20T08:31:02;26.33;;;4.17;;
32455;SDS011;18912;43.270;27.942;2022-11-20T08:33:28;32.00;;;4.60;;
32455;SDS011;18912;43.270;27.942;2022-11-20T08:38:27;52.00;;;13.73;;
32455;SDS011;18912;43.270;27.942;2022-11-20T08:40:57;34.30;;;10.37;;
32455;SDS011;18912;43.270;27.942;2022-11-20T08:43:42;27.20;;;7.68;;
32455;SDS011;18912;43.270;27.942;2022-11-20T08:46:07;42.00;;;11.67;;
32455;SDS011;18912;43.270;27.942;2022-11-20T08:48:33;37.87;;;7.93;;
32455;SDS011;18912;43.270;27.942;2022-11-20T08:50:58;24.53;;;3.97;;
32455;SDS011;18912;43.270;27.942;2022-11-20T08:53:24;22.07;;;4.23;;
32455;SDS011;18912;43.270;27.942;2022-11-20T08:55:50;24.73;;;4.13;;
32455;SDS011;18912;43.270;27.942;2022-11-20T08:58:15;25.07;;;6.77;;
32455;SDS011;18912;43.270;27.942;2022-11-20T09:00:41;42.87;;;10.43;;
32455;SDS011;18912;43.270;27.942;2022-11-20T09:03:06;41.63;;;12.77;;
32455;SDS011;18912;43.270;27.942;2022-11-20T09:05:32;29.17;;;6.67;;
32455;SDS011;18912;43.270;27.942;2022-11-20T09:07:57;32.10;;;5.33;;
32455;SDS011;18912;43.270;27.942;2022-11-20T09:10:23;29.77;;;5.03;;
32455;SDS011;18912;43.270;27.942;2022-11-20T09:12:49;24.07;;;4.77;;
32455;SDS011;18912;43.270;27.942;2022-11-20T09:15:16;29.95;;;5.32;;
32455;SDS011;18912;43.270;27.942;2022-11-20T09:17:42;44.13;;;6.43;;
32455;SDS011;18912;43.270;27.942;2022-11-20T09:20:07;33.90;;;6.43;;
32455;SDS011;18912;43.270;27.942;2022-11-20T09:22:33;42.03;;;7.93;;
32455;SDS011;18912;43.270;27.942;2022-11-20T09:24:59;42.10;;;8.83;;
32455;SDS011;18912;43.270;27.942;2022-11-20T09:27:24;49.57;;;7.73;;
32455;SDS011;18912;43.270;27.942;2022-11-20T09:29:50;32.07;;;5.93;;
32455;SDS011;18912;43.270;27.942;2022-11-20T09:32:15;43.77;;;9.93;;
32455;SDS011;18912;43.270;27.942;2022-11-20T09:34:41;54.00;;;15.30;;
32455;SDS011;18912;43.270;27.942;2022-11-20T09:37:06;38.97;;;10.40;;
32455;SDS011;18912;43.270;27.942;2022-11-20T09:39:32;36.47;;;8.33;;
32455;SDS011;18912;43.270;27.942;2022-11-20T09:42:04;33.57;;;6.37;;
32455;SDS011;18912;43.270;27.942;2022-11-20T09:47:17;35.17;;;5.43;;
32455;SDS011;18912;43.270;27.942;2022-11-20T09:55:33;28.98;;;4.85;;
32455;SDS011;18912;43.270;27.942;2022-11-20T09:58:01;30.27;;;4.60;;
32455;SDS011;18912;43.270;27.942;2022-11-20T10:00:54;28.23;;;5.10;;
32455;SDS011;18912;43.270;27.942;2022-11-20T10:06:32;25.70;;;4.53;;
32455;SDS011;18912;43.270;27.942;2022-11-20T10:17:17;28.25;;;5.18;;
32455;SDS011;18912;43.270;27.942;2022-11-20T10:19:47;42.60;;;5.40;;
32455;SDS011;18912;43.270;27.942;2022-11-20T10:22:39;28.63;;;5.20;;
32455;SDS011;18912;43.270;27.942;2022-11-20T10:25:18;21.63;;;4.00;;
32455;SDS011;18912;43.270;27.942;2022-11-20T10:30:51;19.08;;;4.10;;
32455;SDS011;18912;43.270;27.942;2022-11-20T10:33:25;38.10;;;4.57;;
32455;SDS011;18912;43.270;27.942;2022-11-20T10:41:26;20.40;;;4.63;;
32455;SDS011;18912;43.270;27.942;2022-11-20T10:44:37;24.52;;;5.07;;
32455;SDS011;18912;43.270;27.942;2022-11-20T10:47:13;30.73;;;4.28;;
32455;SDS011;18912;43.270;27.942;2022-11-20T10:49:40;30.67;;;4.40;;
32455;SDS011;18912;43.270;27.942;2022-11-20T11:00:22;31.10;;;5.28;;
32455;SDS011;18912;43.270;27.942;2022-11-20T11:02:52;29.97;;;4.47;;
32455;SDS011;18912;43.270;27.942;2022-11-20T11:07:59;36.45;;;5.07;;
32455;SDS011;18912;43.270;27.942;2022-11-20T11:15:48;28.23;;;5.40;;
32455;SDS011;18912;43.270;27.942;2022-11-20T11:20:57;40.78;;;6.13;;
32455;SDS011;18912;43.270;27.942;2022-11-20T11:23:31;38.35;;;6.22;;
32455;SDS011;18912;43.270;27.942;2022-11-20T11:25:58;32.58;;;8.18;;
32455;SDS011;18912;43.270;27.942;2022-11-20T11:28:25;44.33;;;7.00;;
32455;SDS011;18912;43.270;27.942;2022-11-20T11:30:52;27.77;;;5.60;;
32455;SDS011;18912;43.270;27.942;2022-11-20T11:33:26;40.35;;;5.72;;
32455;SDS011;18912;43.270;27.942;2022-11-20T11:36:02;32.92;;;6.65;;
32455;SDS011;18912;43.270;27.942;2022-11-20T11:38:41;27.98;;;7.30;;
32455;SDS011;18912;43.270;27.942;2022-11-20T11:41:30;30.10;;;5.40;;
32455;SDS011;18912;43.270;27.942;2022-11-20T11:44:43;38.95;;;7.22;;
32455;SDS011;18912;43.270;27.942;2022-11-20T11:49:36;29.33;;;5.75;;
32455;SDS011;18912;43.270;27.942;2022-11-20T11:52:18;39.43;;;5.60;;
32455;SDS011;18912;43.270;27.942;2022-11-20T11:54:50;25.95;;;4.80;;
32455;SDS011;18912;43.270;27.942;2022-11-20T12:00:10;34.65;;;4.90;;
32455;SDS011;18912;43.270;27.942;2022-11-20T12:13:25;40.00;;;5.43;;
32455;SDS011;18912;43.270;27.942;2022-11-20T12:15:55;41.88;;;5.32;;
32455;SDS011;18912;43.270;27.942;2022-11-20T12:18:22;46.33;;;5.67;;
32455;SDS011;18912;43.270;27.942;2022-11-20T12:23:24;41.80;;;6.50;;
32455;SDS011;18912;43.270;27.942;2022-11-20T12:26:01;30.23;;;4.78;;
32455;SDS011;18912;43.270;27.942;2022-11-20T12:28:44;27.83;;;5.60;;
32455;SDS011;18912;43.270;27.942;2022-11-20T12:31:28;44.50;;;6.30;;
32455;SDS011;18912;43.270;27.942;2022-11-20T12:34:18;43.03;;;6.47;;
32455;SDS011;18912;43.270;27.942;2022-11-20T12:37:04;42.45;;;7.72;;
32455;SDS011;18912;43.270;27.942;2022-11-20T12:45:24;42.80;;;8.10;;
32455;SDS011;18912;43.270;27.942;2022-11-20T12:53:42;41.88;;;9.52;;
32455;SDS011;18912;43.270;27.942;2022-11-20T13:01:38;43.20;;;7.35;;
32455;SDS011;18912;43.270;27.942;2022-11-20T13:06:41;47.53;;;7.45;;
32455;SDS011;18912;43.270;27.942;2022-11-20T13:09:13;66.72;;;17.00;;
32455;SDS011;18912;43.270;27.942;2022-11-20T13:11:47;53.17;;;7.60;;
32455;SDS011;18912;43.270;27.942;2022-11-20T13:19:31;40.80;;;8.13;;
32455;SDS011;18912;43.270;27.942;2022-11-20T13:21:57;45.97;;;10.73;;
32455;SDS011;18912;43.270;27.942;2022-11-20T13:24:24;52.93;;;10.30;;
32455;SDS011;18912;43.270;27.942;2022-11-20T13:27:02;63.58;;;9.68;;
32455;SDS011;18912;43.270;27.942;2022-11-20T13:29:37;38.60;;;8.10;;
32455;SDS011;18912;43.270;27.942;2022-11-20T13:32:16;47.20;;;6.88;;
32455;SDS011;18912;43.270;27.942;2022-11-20T13:35:23;56.00;;;7.72;;
32455;SDS011;18912;43.270;27.942;2022-11-20T13:37:37;53.38;;;8.57;;
32455;SDS011;18912;43.270;27.942;2022-11-20T13:40:11;59.42;;;9.82;;
32455;SDS011;18912;43.270;27.942;2022-11-20T13:45:09;50.33;;;7.10;;
32455;SDS011;18912;43.270;27.942;2022-11-20T13:47:49;44.70;;;6.40;;
32455;SDS011;18912;43.270;27.942;2022-11-20T13:50:16;48.63;;;6.90;;
32455;SDS011;18912;43.270;27.942;2022-11-20T13:55:48;52.10;;;8.25;;
32455;SDS011;18912;43.270;27.942;2022-11-20T14:01:21;55.10;;;7.60;;
32455;SDS011;18912;43.270;27.942;2022-11-20T14:03:50;64.97;;;8.98;;
32455;SDS011;18912;43.270;27.942;2022-11-20T14:06:29;45.95;;;7.65;;
32455;SDS011;18912;43.270;27.942;2022-11-20T14:08:57;58.67;;;7.45;;
32455;SDS011;18912;43.270;27.942;2022-11-20T14:11:28;55.22;;;7.43;;
32455;SDS011;18912;43.270;27.942;2022-11-20T14:16:23;48.33;;;7.43;;
32455;SDS011;18912;43.270;27.942;2022-11-20T14:18:49;43.55;;;7.82;;
32455;SDS011;18912;43.270;27.942;2022-11-20T14:21:25;65.78;;;8.48;;
32455;SDS011;18912;43.270;27.942;2022-11-20T14:23:53;53.28;;;9.07;;
32455;SDS011;18912;43.270;27.942;2022-11-20T14:26:29;48.53;;;9.00;;
32455;SDS011;18912;43.270;27.942;2022-11-20T14:28:55;41.77;;;7.97;;
32455;SDS011;18912;43.270;27.942;2022-11-20T14:31:24;51.10;;;8.03;;
32455;SDS011;18912;43.270;27.942;2022-11-20T14:33:54;50.65;;;7.65;;
32455;SDS011;18912;43.270;27.942;2022-11-20T14:36:21;44.83;;;7.50;;
32455;SDS011;18912;43.270;27.942;2022-11-20T14:38:49;52.35;;;8.93;;
32455;SDS011;18912;43.270;27.942;2022-11-20T14:43:45;50.13;;;8.75;;
32455;SDS011;18912;43.270;27.942;2022-11-20T14:46:11;44.03;;;8.50;;
32455;SDS011;18912;43.270;27.942;2022-11-20T14:48:46;61.47;;;9.93;;
32455;SDS011;18912;43.270;27.942;2022-11-20T14:56:57;52.17;;;8.13;;
32455;SDS011;18912;43.270;27.942;2022-11-20T14:59:26;66.63;;;8.73;;
32455;SDS011;18912;43.270;27.942;2022-11-20T15:04:21;69.03;;;13.43;;
32455;SDS011;18912;43.270;27.942;2022-11-20T15:06:50;59.13;;;14.77;;
32455;SDS011;18912;43.270;27.942;2022-11-20T15:09:17;89.72;;;22.55;;
32455;SDS011;18912;43.270;27.942;2022-11-20T15:11:53;106.10;;;27.37;;
32455;SDS011;18912;43.270;27.942;2022-11-20T15:14:22;73.70;;;15.18;;
32455;SDS011;18912;43.270;27.942;2022-11-20T15:16:48;53.72;;;8.57;;
32455;SDS011;18912;43.270;27.942;2022-11-20T15:19:21;53.10;;;7.83;;
32455;SDS011;18912;43.270;27.942;2022-11-20T15:21:48;57.00;;;11.43;;
32455;SDS011;18912;43.270;27.942;2022-11-20T15:24:14;52.15;;;7.80;;
32455;SDS011;18912;43.270;27.942;2022-11-20T15:26:40;57.47;;;8.23;;
32455;SDS011;18912;43.270;27.942;2022-11-20T15:29:10;73.03;;;11.68;;
32455;SDS011;18912;43.270;27.942;2022-11-20T15:31:38;66.65;;;10.98;;
32455;SDS011;18912;43.270;27.942;2022-11-20T15:34:12;64.03;;;15.02;;
32455;SDS011;18912;43.270;27.942;2022-11-20T15:36:40;50.58;;;12.90;;
32455;SDS011;18912;43.270;27.942;2022-11-20T15:39:07;64.03;;;12.40;;
32455;SDS011;18912;43.270;27.942;2022-11-20T15:41:34;63.70;;;16.85;;
32455;SDS011;18912;43.270;27.942;2022-11-20T15:44:00;67.15;;;9.63;;
32455;SDS011;18912;43.270;27.942;2022-11-20T15:46:27;47.22;;;8.48;;
32455;SDS011;18912;43.270;27.942;2022-11-20T15:48:54;66.43;;;9.45;;
32455;SDS011;18912;43.270;27.942;2022-11-20T15:51:30;53.33;;;9.10;;
32455;SDS011;18912;43.270;27.942;2022-11-20T15:53:58;60.13;;;9.27;;
32455;SDS011;18912;43.270;27.942;2022-11-20T15:56:24;67.90;;;8.53;;
32455;SDS011;18912;43.270;27.942;2022-11-20T15:58:49;70.68;;;11.02;;
32455;SDS011;18912;43.270;27.942;2022-11-20T16:01:16;57.70;;;9.73;;
32455;SDS011;18912;43.270;27.942;2022-11-20T16:03:43;69.57;;;9.20;;
32455;SDS011;18912;43.270;27.942;2022-11-20T16:06:09;55.77;;;9.07;;
32455;SDS011;18912;43.270;27.942;2022-11-20T16:08:34;58.77;;;11.70;;
32455;SDS011;18912;43.270;27.942;2022-11-20T16:11:00;60.40;;;12.03;;
32455;SDS011;18912;43.270;27.942;2022-11-20T16:13:26;79.27;;;12.63;;
32455;SDS011;18912;43.270;27.942;2022-11-20T16:16:32;73.55;;;17.65;;
32455;SDS011;18912;43.270;27.942;2022-11-20T16:18:59;72.45;;;12.60;;
32455;SDS011;18912;43.270;27.942;2022-11-20T16:21:25;58.67;;;13.77;;
32455;SDS011;18912;43.270;27.942;2022-11-20T16:23:58;71.60;;;12.18;;
32455;SDS011;18912;43.270;27.942;2022-11-20T16:26:25;88.60;;;20.23;;
32455;SDS011;18912;43.270;27.942;2022-11-20T16:28:51;72.20;;;16.70;;
32455;SDS011;18912;43.270;27.942;2022-11-20T16:31:17;58.13;;;13.03;;
32455;SDS011;18912;43.270;27.942;2022-11-20T16:33:54;68.60;;;15.57;;